Time;durP1;ratioP1;P1;durP2;ratioP2;P2;SDS_P1;SDS_P2;PMS_P1;PMS_P2;Temp;Humidity;BMP_temperature;BMP_pressure;BME280_temperature;BME280_humidity;BME280_pressure;Samples;Min_cycle;Max_cycle;Signal;HPM_P1;HPM_P2
2021/08/21 00:01:47;;;;;;;1999.90;999.90;;;18.30;99.90;;;;;;5060530;28;20628;-81
2021/08/21 00:04:15;;;;;;;1999.90;999.90;;;18.30;99.90;;;;;;5060577;28;20215;-81
2021/08/21 00:06:43;;;;;;;1999.90;999.90;;;18.30;99.90;;;;;;5042809;28;20184;-81
2021/08/21 00:09:11;;;;;;;1999.90;999.90;;;18.30;99.90;;;;;;5059943;28;20886;-81
2021/08/21 00:11:37;;;;;;;1999.90;999.90;;;18.30;99.90;;;;;;5060455;28;20421;-81
2021/08/21 00:14:03;;;;;;;1999.90;999.90;;;18.30;99.90;;;;;;5060211;28;20479;-81
2021/08/21 00:16:30;;;;;;;1999.90;999.90;;;18.30;99.90;;;;;;5041660;28;20415;-80
2021/08/21 00:18:57;;;;;;;1999.90;999.90;;;18.30;99.90;;;;;;5059586;28;20917;-81
2021/08/21 00:21:23;;;;;;;1999.90;999.90;;;18.20;99.90;;;;;;5059558;28;20414;-81
2021/08/21 00:23:49;;;;;;;1999.90;999.90;;;18.20;99.90;;;;;;5059619;28;20461;-81
2021/08/21 00:26:14;;;;;;;1999.90;999.90;;;18.20;99.90;;;;;;5041606;28;20418;-80
2021/08/21 00:28:40;;;;;;;1999.90;999.90;;;18.20;99.90;;;;;;5059452;28;20172;-80
2021/08/21 00:31:06;;;;;;;1999.90;999.90;;;18.20;99.90;;;;;;5059241;28;20283;-80
2021/08/21 00:33:32;;;;;;;1999.90;999.90;;;18.20;99.90;;;;;;5059399;28;20183;-81
2021/08/21 00:35:58;;;;;;;1999.90;999.90;;;18.10;99.90;;;;;;5059923;28;20445;-81
2021/08/21 00:38:23;;;;;;;1999.90;999.90;;;18.10;99.90;;;;;;5059928;28;20431;-81
2021/08/21 00:40:49;;;;;;;1999.90;999.90;;;18.10;99.90;;;;;;5059782;28;20157;-81
2021/08/21 00:43:17;;;;;;;1999.90;999.90;;;18.10;99.90;;;;;;5041353;28;20164;-81
2021/08/21 00:45:42;;;;;;;1999.90;999.90;;;18.00;99.90;;;;;;5041277;28;20465;-81
2021/08/21 00:48:08;;;;;;;1999.90;999.90;;;18.00;99.90;;;;;;5041846;28;20473;-81
2021/08/21 00:50:34;;;;;;;1999.90;999.90;;;18.00;99.90;;;;;;5059426;28;20188;-81
2021/08/21 00:53:00;;;;;;;1999.90;999.90;;;18.00;99.90;;;;;;5059218;28;20168;-81
2021/08/21 00:55:26;;;;;;;1999.90;999.90;;;17.90;99.90;;;;;;5059524;28;20402;-81
2021/08/21 00:57:52;;;;;;;1999.90;999.90;;;17.90;99.90;;;;;;5059161;28;20303;-81
2021/08/21 01:00:19;;;;;;;1999.90;999.90;;;17.90;99.90;;;;;;5058893;28;20411;-81
2021/08/21 01:02:45;;;;;;;1999.90;999.90;;;17.80;99.90;;;;;;5059213;28;20402;-81
2021/08/21 01:05:14;;;;;;;1999.90;999.90;;;17.80;99.90;;;;;;5040472;28;20415;-81
2021/08/21 01:07:40;;;;;;;1999.90;999.90;;;17.80;99.90;;;;;;5059281;28;20414;-81
2021/08/21 01:10:17;;;;;;;1999.90;999.90;;;17.80;99.90;;;;;;5041245;28;20450;-81
2021/08/21 01:12:47;;;;;;;1999.90;999.90;;;17.80;99.90;;;;;;5059100;28;20387;-81
2021/08/21 01:15:13;;;;;;;1999.90;999.90;;;17.80;99.90;;;;;;5058755;28;20398;-81
2021/08/21 01:17:38;;;;;;;1999.90;999.90;;;17.70;99.90;;;;;;5058539;28;20419;-81
2021/08/21 01:20:06;;;;;;;1999.90;999.90;;;17.70;99.90;;;;;;5059588;28;20435;-81
2021/08/21 01:22:32;;;;;;;1999.90;999.90;;;17.70;99.90;;;;;;5059023;28;20204;-79
2021/08/21 01:24:59;;;;;;;1999.90;999.90;;;17.70;99.90;;;;;;5041484;28;20418;-81
2021/08/21 01:27:32;;;;;;;1999.90;999.90;;;17.70;99.90;;;;;;5058825;28;20235;-81
2021/08/21 01:29:59;;;;;;;1999.90;999.90;;;17.60;99.90;;;;;;5040977;28;20431;-81
2021/08/21 01:32:26;;;;;;;1999.90;999.90;;;17.60;99.90;;;;;;5041128;28;20411;-81
2021/08/21 01:34:53;;;;;;;1999.90;999.90;;;17.60;99.90;;;;;;5058770;28;20406;-81
2021/08/21 01:37:20;;;;;;;1999.90;999.90;;;17.60;99.90;;;;;;5058468;28;20529;-81
2021/08/21 01:39:47;;;;;;;1999.90;999.90;;;17.60;99.90;;;;;;5058514;28;20411;-81
2021/08/21 01:42:14;;;;;;;1999.90;999.90;;;17.50;99.90;;;;;;5040421;28;20537;-81
2021/08/21 01:44:41;;;;;;;1999.90;999.90;;;17.50;99.90;;;;;;5041041;28;20557;-81
2021/08/21 01:47:07;;;;;;;1999.90;999.90;;;17.50;99.90;;;;;;5058382;28;20427;-81
2021/08/21 01:49:33;;;;;;;1999.90;999.90;;;17.50;99.90;;;;;;5058560;28;20445;-81
2021/08/21 01:52:01;;;;;;;1999.90;999.90;;;17.40;99.90;;;;;;5058413;28;20416;-80
2021/08/21 01:54:26;;;;;;;1999.90;999.90;;;17.40;99.90;;;;;;5040183;28;20168;-81
2021/08/21 01:56:56;;;;;;;1999.90;999.90;;;17.40;99.90;;;;;;5057790;28;20445;-81
2021/08/21 01:59:35;;;;;;;1999.90;999.90;;;17.40;99.90;;;;;;5057996;28;20160;-81
2021/08/21 02:02:04;;;;;;;1999.90;999.90;;;17.30;99.90;;;;;;5058168;28;20977;-81
2021/08/21 02:04:29;;;;;;;1999.90;999.90;;;17.30;99.90;;;;;;5040082;28;20463;-81
2021/08/21 02:06:55;;;;;;;1999.90;999.90;;;17.30;99.90;;;;;;5058494;28;20450;-81
2021/08/21 02:09:22;;;;;;;1999.90;999.90;;;17.30;99.90;;;;;;5058196;28;20524;-81
2021/08/21 02:11:50;;;;;;;1999.90;999.90;;;17.20;99.90;;;;;;5057627;28;20161;-81
2021/08/21 02:14:17;;;;;;;1999.90;999.90;;;17.20;99.90;;;;;;5057736;28;20504;-81
2021/08/21 02:16:46;;;;;;;1999.90;999.90;;;17.20;99.90;;;;;;5057249;28;20418;-81
2021/08/21 02:19:12;;;;;;;1999.90;999.90;;;17.20;99.90;;;;;;5057476;28;20421;-80
2021/08/21 02:21:38;;;;;;;1999.90;999.90;;;17.20;99.90;;;;;;5057466;28;20490;-81
2021/08/21 02:24:05;;;;;;;1999.90;999.90;;;17.20;99.90;;;;;;5039805;28;20173;-80
2021/08/21 02:26:31;;;;;;;1999.90;999.90;;;17.30;99.90;;;;;;5057737;28;20399;-81
2021/08/21 02:28:57;;;;;;;1999.90;999.90;;;17.30;99.90;;;;;;5057476;28;20400;-81
2021/08/21 02:31:24;;;;;;;1999.90;999.90;;;17.30;99.90;;;;;;5057194;28;20239;-81
2021/08/21 02:33:49;;;;;;;1999.90;999.90;;;17.30;99.90;;;;;;5039714;28;20659;-81
2021/08/21 02:36:15;;;;;;;1999.90;999.90;;;17.30;99.90;;;;;;5057842;28;20415;-81
2021/08/21 02:38:43;;;;;;;1999.90;999.90;;;17.20;99.90;;;;;;5040538;28;20702;-81
2021/08/21 02:41:09;;;;;;;1999.90;999.90;;;17.20;99.90;;;;;;5058447;28;20509;-81
2021/08/21 02:43:35;;;;;;;1999.90;999.90;;;17.20;99.90;;;;;;5057983;28;20411;-81
2021/08/21 02:46:01;;;;;;;1999.90;999.90;;;17.20;99.90;;;;;;5039237;28;20438;-81
2021/08/21 02:48:27;;;;;;;1999.90;999.90;;;17.20;99.90;;;;;;5057590;28;20191;-81
2021/08/21 02:50:53;;;;;;;1999.90;999.90;;;17.20;99.90;;;;;;5057213;28;20193;-81
2021/08/21 02:53:19;;;;;;;1999.90;999.90;;;17.20;99.90;;;;;;5057357;28;20450;-81
2021/08/21 02:55:45;;;;;;;1999.90;999.90;;;17.10;99.90;;;;;;5056788;28;20214;-80
2021/08/21 02:58:11;;;;;;;1999.90;999.90;;;17.10;99.90;;;;;;5039240;28;20188;-80
2021/08/21 03:00:36;;;;;;;1999.90;999.90;;;17.10;99.90;;;;;;5057464;28;20471;-80
2021/08/21 03:03:02;;;;;;;1999.90;999.90;;;17.10;99.90;;;;;;5057195;28;20183;-80
2021/08/21 03:05:29;;;;;;;1999.90;999.90;;;17.10;99.90;;;;;;5057324;28;20426;-80
2021/08/21 03:07:54;;;;;;;1999.90;999.90;;;17.10;99.90;;;;;;5057352;28;20199;-80
2021/08/21 03:10:20;;;;;;;1999.90;999.90;;;17.10;99.90;;;;;;5056879;28;20455;-80
2021/08/21 03:12:46;;;;;;;1999.90;999.90;;;17.10;99.90;;;;;;5038884;28;20668;-80
2021/08/21 03:15:11;;;;;;;1999.90;999.90;;;17.10;99.90;;;;;;5057367;28;20161;-80
2021/08/21 03:17:37;;;;;;;1999.90;999.90;;;17.10;99.90;;;;;;5057044;28;20189;-80
2021/08/21 03:20:04;;;;;;;1999.90;999.90;;;17.10;99.90;;;;;;5038694;28;20244;-80
2021/08/21 03:22:30;;;;;;;1999.90;999.90;;;17.10;99.90;;;;;;5056650;28;20222;-80
2021/08/21 03:24:56;;;;;;;1999.90;999.90;;;17.10;99.90;;;;;;5056899;28;20806;-80
2021/08/21 03:27:21;;;;;;;1999.90;999.90;;;17.00;99.90;;;;;;5038707;28;20184;-80
2021/08/21 03:29:48;;;;;;;1999.90;999.90;;;17.10;99.90;;;;;;5038652;28;20563;-80
2021/08/21 03:32:17;;;;;;;1999.90;999.90;;;17.10;99.90;;;;;;5038902;28;20192;-80
2021/08/21 03:34:44;;;;;;;1999.90;999.90;;;17.10;99.90;;;;;;5039142;28;20407;-80
2021/08/21 03:37:10;;;;;;;1999.90;999.90;;;17.00;99.90;;;;;;5057508;28;20454;-80
2021/08/21 03:39:37;;;;;;;1999.90;999.90;;;17.00;99.90;;;;;;5038809;28;20944;-79
2021/08/21 03:42:03;;;;;;;1999.90;999.90;;;17.00;99.90;;;;;;5056746;28;20406;-80
2021/08/21 03:44:29;;;;;;;1999.90;999.90;;;17.00;99.90;;;;;;5039034;28;20420;-80
2021/08/21 03:46:55;;;;;;;1999.90;999.90;;;17.00;99.90;;;;;;5056567;28;20420;-80
2021/08/21 03:49:20;;;;;;;1999.90;999.90;;;17.00;99.90;;;;;;5056817;28;20176;-80
2021/08/21 03:51:46;;;;;;;1999.90;999.90;;;17.00;99.90;;;;;;5056850;28;20165;-80
2021/08/21 03:54:12;;;;;;;1999.90;999.90;;;17.00;99.90;;;;;;5056809;28;20624;-80
2021/08/21 03:56:37;;;;;;;1999.90;999.90;;;17.00;99.90;;;;;;5056645;28;20709;-80
2021/08/21 03:59:04;;;;;;;1999.90;999.90;;;16.90;99.90;;;;;;5056200;28;20568;-80
2021/08/21 04:01:30;;;;;;;1999.90;999.90;;;16.90;99.90;;;;;;5056386;28;20509;-80
2021/08/21 04:03:56;;;;;;;1999.90;999.90;;;16.80;99.90;;;;;;5056997;28;20790;-80
2021/08/21 04:06:21;;;;;;;1999.90;999.90;;;16.90;99.90;;;;;;5038775;28;20446;-80
2021/08/21 04:08:47;;;;;;;1999.90;999.90;;;16.80;99.90;;;;;;5056434;28;20574;-80
2021/08/21 04:11:13;;;;;;;1999.90;999.90;;;16.80;99.90;;;;;;5056623;28;20189;-80
2021/08/21 04:13:38;;;;;;;1999.90;999.90;;;16.80;99.90;;;;;;5038263;28;20192;-80
2021/08/21 04:16:04;;;;;;;1999.90;999.90;;;16.80;99.90;;;;;;5055952;28;20165;-79
2021/08/21 04:18:30;;;;;;;1999.90;999.90;;;16.70;99.90;;;;;;5056466;28;20185;-80
2021/08/21 04:20:55;;;;;;;1999.90;999.90;;;16.70;99.90;;;;;;5038321;28;20165;-80
2021/08/21 04:23:21;;;;;;;1999.90;999.90;;;16.70;99.90;;;;;;5038668;28;20167;-80
2021/08/21 04:25:47;;;;;;;1999.90;999.90;;;16.70;99.90;;;;;;5055822;28;20169;-80
2021/08/21 04:28:12;;;;;;;1999.90;999.90;;;16.70;99.90;;;;;;5038045;28;20192;-80
2021/08/21 04:30:38;;;;;;;1999.90;999.90;;;16.70;99.90;;;;;;5038540;28;20196;-80
2021/08/21 04:33:04;;;;;;;1999.90;999.90;;;16.70;99.90;;;;;;5055927;28;20243;-82
2021/08/21 04:35:29;;;;;;;1999.90;999.90;;;16.60;99.90;;;;;;5056157;28;20628;-82
2021/08/21 04:37:55;;;;;;;1999.90;999.90;;;16.60;99.90;;;;;;5037938;28;20252;-82
2021/08/21 04:40:22;;;;;;;1999.90;999.90;;;16.60;99.90;;;;;;5038460;28;20236;-82
2021/08/21 04:42:47;;;;;;;1999.90;999.90;;;16.60;99.90;;;;;;5059715;28;20157;-82
2021/08/21 04:45:13;;;;;;;1999.90;999.90;;;16.70;99.90;;;;;;5059368;28;20747;-80
2021/08/21 04:47:39;;;;;;;1999.90;999.90;;;16.70;99.90;;;;;;5059401;28;20189;-80
2021/08/21 04:50:06;;;;;;;1999.90;999.90;;;16.70;99.90;;;;;;5059723;28;20454;-82
2021/08/21 04:52:32;;;;;;;1999.90;999.90;;;16.70;99.90;;;;;;5059655;28;20241;-82
2021/08/21 04:54:58;;;;;;;1999.90;999.90;;;16.70;99.90;;;;;;5059180;28;20403;-80
2021/08/21 04:57:23;;;;;;;1999.90;999.90;;;16.70;99.90;;;;;;5059173;28;20518;-82
2021/08/21 04:59:49;;;;;;;1999.90;999.90;;;16.70;99.90;;;;;;5059492;28;20411;-80
2021/08/21 05:02:15;;;;;;;1999.90;999.90;;;16.70;99.90;;;;;;5059426;28;20218;-80
2021/08/21 05:04:41;;;;;;;1999.90;999.90;;;16.80;99.90;;;;;;5059211;28;20174;-80
2021/08/21 05:07:07;;;;;;;1999.90;999.90;;;16.80;99.90;;;;;;5058996;28;20495;-80
2021/08/21 05:09:32;;;;;;;1999.90;999.90;;;16.80;99.90;;;;;;5059118;28;20183;-80
2021/08/21 05:11:58;;;;;;;1999.90;999.90;;;16.80;99.90;;;;;;5041229;28;20407;-79
2021/08/21 05:14:24;;;;;;;1999.90;999.90;;;16.90;99.90;;;;;;5059669;28;20267;-80
2021/08/21 05:16:50;;;;;;;1999.90;999.90;;;16.90;99.90;;;;;;5058726;28;20180;-80
2021/08/21 05:21:52;;;;;;;1999.90;999.90;;;16.90;99.90;;;;;;5058741;28;20386;-80
2021/08/21 05:24:18;;;;;;;1999.90;999.90;;;16.90;99.90;;;;;;5041537;28;20873;-80
2021/08/21 05:26:47;;;;;;;1999.90;999.90;;;16.90;99.90;;;;;;5059119;28;20423;-82
2021/08/21 05:29:14;;;;;;;1999.90;999.90;;;16.80;99.90;;;;;;5041209;28;20487;-83
2021/08/21 05:31:40;;;;;;;1999.90;999.90;;;16.80;99.90;;;;;;5059506;28;20442;-80
2021/08/21 05:34:07;;;;;;;1999.90;999.90;;;16.80;99.90;;;;;;5059501;28;20903;-82
2021/08/21 05:36:33;;;;;;;1999.90;999.90;;;16.80;99.90;;;;;;5059756;28;20284;-80
2021/08/21 05:38:59;;;;;;;1999.90;999.90;;;16.80;99.90;;;;;;5059205;28;20435;-80
2021/08/21 05:41:24;;;;;;;1999.90;999.90;;;16.80;99.90;;;;;;5059156;28;20260;-80
2021/08/21 05:43:50;;;;;;;1999.90;999.90;;;16.80;99.90;;;;;;5041154;28;20271;-80
2021/08/21 05:46:16;;;;;;;1999.90;999.90;;;16.80;99.90;;;;;;5059218;28;20192;-80
2021/08/21 05:48:41;;;;;;;1999.90;999.90;;;16.90;99.90;;;;;;5040809;28;20583;-82
2021/08/21 05:51:07;;;;;;;1999.90;999.90;;;17.00;99.90;;;;;;5040909;28;20230;-80
2021/08/21 05:53:33;;;;;;;1999.90;999.90;;;17.00;99.90;;;;;;5040063;28;20172;-80
2021/08/21 05:55:58;;;;;;;1999.90;999.90;;;17.00;99.90;;;;;;5058573;28;20184;-81
2021/08/21 05:58:24;;;;;;;1999.90;999.90;;;17.00;99.90;;;;;;5058432;28;20208;-80
2021/08/21 06:00:50;;;;;;;1999.90;999.90;;;17.10;99.90;;;;;;5058844;28;20180;-79
2021/08/21 06:03:17;;;;;;;1999.90;999.90;;;17.10;99.90;;;;;;5058175;28;20195;-80
2021/08/21 06:05:43;;;;;;;1999.90;999.90;;;17.10;99.90;;;;;;5058271;28;20570;-80
2021/08/21 06:08:08;;;;;;;1999.90;999.90;;;17.10;99.90;;;;;;5057906;28;20450;-80
2021/08/21 06:10:34;;;;;;;1999.90;999.90;;;17.10;99.90;;;;;;5040623;28;20220;-80
2021/08/21 06:13:00;;;;;;;1999.90;999.90;;;17.10;99.90;;;;;;5058761;28;20164;-80
2021/08/21 06:15:25;;;;;;;1999.90;999.90;;;17.00;99.90;;;;;;5058754;28;20169;-83
2021/08/21 06:17:51;;;;;;;1999.90;999.90;;;17.10;99.90;;;;;;5058424;28;20184;-82
2021/08/21 06:20:17;;;;;;;1999.90;999.90;;;17.10;99.90;;;;;;5057894;28;20196;-82
2021/08/21 06:22:43;;;;;;;1999.90;999.90;;;17.10;99.90;;;;;;5058037;28;20210;-82
2021/08/21 06:25:09;;;;;;;1999.90;999.90;;;17.10;99.90;;;;;;5058240;28;20758;-82
2021/08/21 06:27:36;;;;;;;1999.90;999.90;;;17.10;99.90;;;;;;5039956;28;20185;-82
2021/08/21 06:30:02;;;;;;;1999.90;999.90;;;17.10;99.90;;;;;;5058766;28;20439;-82
2021/08/21 06:32:28;;;;;;;1999.90;999.90;;;17.00;99.90;;;;;;5040317;28;20420;-82
2021/08/21 06:34:53;;;;;;;1999.90;999.90;;;17.00;99.90;;;;;;5039800;28;20768;-82
2021/08/21 06:37:19;;;;;;;1999.90;999.90;;;16.90;99.90;;;;;;5057694;28;20671;-82
2021/08/21 06:39:45;;;;;;;1999.90;999.90;;;16.90;99.90;;;;;;5058904;28;20214;-83
2021/08/21 06:42:10;;;;;;;1999.90;999.90;;;16.90;99.90;;;;;;5058866;28;20164;-83
2021/08/21 06:44:36;;;;;;;1999.90;999.90;;;17.00;99.90;;;;;;5040667;28;20177;-83
2021/08/21 06:47:02;;;;;;;1999.90;999.90;;;17.10;99.90;;;;;;5040508;28;20189;-83
2021/08/21 06:49:27;;;;;;;1999.90;999.90;;;17.10;99.90;;;;;;5058284;28;20163;-83
2021/08/21 06:51:53;;;;;;;1999.90;999.90;;;17.10;99.90;;;;;;5040629;28;20175;-84
2021/08/21 06:54:20;;;;;;;1999.90;999.90;;;17.10;99.90;;;;;;5041237;28;20589;-83
2021/08/21 06:56:46;;;;;;;1999.90;999.90;;;17.00;99.90;;;;;;5058228;28;20256;-83
2021/08/21 06:59:11;;;;;;;1999.90;999.90;;;17.10;99.90;;;;;;5058492;28;20445;-83
2021/08/21 07:01:37;;;;;;;1999.90;999.90;;;17.20;99.90;;;;;;5058869;28;20160;-83
2021/08/21 07:04:03;;;;;;;1999.90;999.90;;;17.20;99.90;;;;;;5040666;28;20173;-83
2021/08/21 07:06:29;;;;;;;1999.90;999.90;;;17.30;99.90;;;;;;5058749;28;20189;-83
2021/08/21 07:08:55;;;;;;;1999.90;999.90;;;17.30;99.90;;;;;;5039766;28;20418;-82
2021/08/21 07:11:20;;;;;;;1999.90;999.90;;;17.30;99.90;;;;;;5056763;28;20703;-82
2021/08/21 07:13:46;;;;;;;1999.90;999.90;;;17.40;99.90;;;;;;5056862;28;20193;-82
2021/08/21 07:16:13;;;;;;;1999.90;999.90;;;17.50;99.90;;;;;;5056427;28;20227;-82
2021/08/21 07:18:39;;;;;;;1999.90;999.90;;;17.50;99.90;;;;;;5056947;28;20453;-82
2021/08/21 07:21:07;;;;;;;1999.90;999.90;;;17.50;99.90;;;;;;5057088;28;20399;-82
2021/08/21 07:23:33;;;;;;;1999.90;999.90;;;17.60;99.90;;;;;;5056765;28;20399;-82
2021/08/21 07:25:58;;;;;;;1999.90;999.90;;;17.60;99.90;;;;;;5055855;28;20453;-82
2021/08/21 07:28:24;;;;;;;1999.90;999.90;;;17.70;99.90;;;;;;5056537;28;20189;-82
2021/08/21 07:30:50;;;;;;;1999.90;999.90;;;17.70;99.90;;;;;;5056566;28;20675;-82
2021/08/21 07:33:15;;;;;;;1999.90;999.90;;;17.80;99.90;;;;;;5056752;28;20192;-82
2021/08/21 07:35:41;;;;;;;1999.90;999.90;;;17.90;99.90;;;;;;5057083;28;20161;-82
2021/08/21 07:38:07;;;;;;;1999.90;999.90;;;17.90;99.90;;;;;;5056856;28;20207;-82
2021/08/21 07:40:35;;;;;;;1999.90;999.90;;;18.00;99.90;;;;;;5038861;28;20169;-82
2021/08/21 07:43:01;;;;;;;1999.90;999.90;;;18.00;99.90;;;;;;5038808;28;20172;-82
2021/08/21 07:45:26;;;;;;;1999.90;999.90;;;18.10;99.90;;;;;;5056275;28;20426;-82
2021/08/21 07:47:52;;;;;;;1999.90;999.90;;;18.10;99.90;;;;;;5352227;22;20483;-82
2021/08/21 07:50:18;;;;;;;1999.90;999.90;;;18.20;99.90;;;;;;5049573;28;20260;-83
2021/08/21 07:52:46;;;;;;;1999.90;999.90;;;18.20;99.90;;;;;;5067303;28;20167;-83
2021/08/21 07:55:13;;;;;;;1999.90;999.90;;;18.30;99.90;;;;;;5067922;28;20427;-83
2021/08/21 07:57:39;;;;;;;1999.90;999.90;;;18.30;99.90;;;;;;5067326;28;20423;-83
2021/08/21 08:00:34;;;;;;;1999.90;999.90;;;18.50;99.90;;;;;;5048327;28;20434;-82
2021/08/21 08:02:59;;;;;;;1999.90;999.90;;;18.60;99.90;;;;;;5048717;28;20826;-82
2021/08/21 08:05:32;;;;;;;1999.90;999.90;;;18.60;99.90;;;;;;5066478;28;20399;-82
2021/08/21 08:08:01;;;;;;;1999.90;999.90;;;18.60;99.90;;;;;;5066527;28;20189;-82
2021/08/21 08:10:32;;;;;;;1999.90;999.90;;;18.70;99.90;;;;;;5066165;28;20493;-82
2021/08/21 08:12:57;;;;;;;1999.90;999.90;;;18.70;99.90;;;;;;5066164;28;20376;-83
2021/08/21 08:15:26;;;;;;;1999.90;999.90;;;18.80;99.90;;;;;;5066281;28;20399;-82
2021/08/21 08:17:52;;;;;;;1999.90;999.90;;;18.90;99.90;;;;;;5070330;28;20180;-82
2021/08/21 08:20:17;;;;;;;1999.90;999.90;;;19.00;99.90;;;;;;5069055;28;20407;-82
2021/08/21 08:22:43;;;;;;;1999.90;999.90;;;19.00;99.90;;;;;;5068455;28;20172;-82
2021/08/21 08:25:14;;;;;;;1999.90;999.90;;;19.10;99.90;;;;;;5069320;28;20514;-82
2021/08/21 08:27:40;;;;;;;1999.90;999.90;;;19.20;99.90;;;;;;5051075;28;20197;-82
2021/08/21 08:30:06;;;;;;;1999.90;999.90;;;19.30;99.90;;;;;;5052027;28;20462;-82
2021/08/21 08:32:32;;;;;;;1999.90;999.90;;;19.50;99.90;;;;;;5069026;28;20175;-82
2021/08/21 08:34:57;;;;;;;1999.90;999.90;;;19.50;99.90;;;;;;5068205;28;20399;-82
2021/08/21 08:37:23;;;;;;;1999.90;999.90;;;19.60;99.90;;;;;;5051669;28;20462;-82
2021/08/21 08:39:49;;;;;;;1999.90;999.90;;;19.80;99.90;;;;;;5069659;28;20572;-82
2021/08/21 08:42:15;;;;;;;1999.90;999.90;;;19.90;99.90;;;;;;5069469;28;20536;-82
2021/08/21 08:44:46;;;;;;;1999.90;999.90;;;20.00;99.90;;;;;;5069027;28;20165;-82
2021/08/21 08:47:16;;;;;;;1999.90;999.90;;;20.00;99.90;;;;;;5050680;28;20430;-82
2021/08/21 08:49:45;;;;;;;1999.90;999.90;;;20.10;99.90;;;;;;5069383;28;20392;-82
2021/08/21 08:52:12;;;;;;;1999.90;999.90;;;20.20;99.90;;;;;;5050733;28;20430;-82
2021/08/21 08:54:37;;;;;;;1999.90;999.90;;;20.20;99.90;;;;;;5069157;28;20484;-82
2021/08/21 08:57:04;;;;;;;1999.90;999.90;;;20.30;99.90;;;;;;5050891;28;20435;-82
2021/08/21 08:59:30;;;;;;;1999.90;999.90;;;20.40;99.90;;;;;;5069760;28;20169;-82
2021/08/21 09:01:56;;;;;;;1999.90;999.90;;;20.50;99.90;;;;;;5069395;28;20466;-82
2021/08/21 09:04:26;;;;;;;1999.90;999.90;;;20.60;99.90;;;;;;5067894;28;20403;-82
2021/08/21 09:06:53;;;;;;;1999.90;999.90;;;20.60;99.90;;;;;;5068395;28;20181;-82
2021/08/21 09:09:25;;;;;;;1999.90;999.90;;;20.80;99.90;;;;;;5068319;28;20403;-82
2021/08/21 09:11:53;;;;;;;1999.90;999.90;;;20.90;99.90;;;;;;5050329;28;20458;-82
2021/08/21 09:14:29;;;;;;;1999.90;999.90;;;20.90;99.90;;;;;;5068084;28;20400;-82
2021/08/21 09:17:20;;;;;;;1999.90;999.90;;;21.00;99.90;;;;;;5068496;28;20486;-82
2021/08/21 09:19:47;;;;;;;1999.90;999.90;;;21.00;99.90;;;;;;5068312;28;20423;-82
2021/08/21 09:22:14;;;;;;;1999.90;999.90;;;21.00;99.90;;;;;;5067570;28;20415;-82
2021/08/21 09:24:42;;;;;;;1999.90;999.90;;;21.00;99.90;;;;;;5068132;28;20397;-82
2021/08/21 09:27:23;;;;;;;1999.90;999.90;;;21.10;99.90;;;;;;5067843;28;20825;-82
2021/08/21 09:30:13;;;;;;;1999.90;999.90;;;21.20;99.90;;;;;;5049946;28;20487;-82
2021/08/21 09:32:40;;;;;;;1999.90;999.90;;;21.40;99.90;;;;;;5049769;28;20399;-82
2021/08/21 09:35:08;;;;;;;1999.90;999.90;;;21.50;99.90;;;;;;5067852;28;20401;-82
2021/08/21 09:37:48;;;;;;;1999.90;999.90;;;21.60;99.90;;;;;;5049086;28;20428;-82
2021/08/21 09:40:30;;;;;;;1999.90;999.90;;;21.70;99.90;;;;;;5067944;28;20396;-82
2021/08/21 09:42:56;;;;;;;1999.90;999.90;;;21.80;99.90;;;;;;5050003;28;20409;-81
2021/08/21 09:45:23;;;;;;;1999.90;999.90;;;21.90;99.90;;;;;;5049450;28;20419;-82
2021/08/21 09:47:48;;;;;;;1999.90;999.90;;;21.90;99.90;;;;;;5067068;28;20494;-82
2021/08/21 09:50:18;;;;;;;1999.90;999.90;;;22.00;99.90;;;;;;5066341;28;20451;-82
2021/08/21 09:52:48;;;;;;;1999.90;999.90;;;22.10;99.90;;;;;;5067595;28;20165;-82
2021/08/21 09:55:25;;;;;;;1999.90;999.90;;;22.20;99.90;;;;;;5067528;28;20409;-82
2021/08/21 09:58:06;;;;;;;1999.90;999.90;;;22.40;99.90;;;;;;5067017;28;20456;-82
2021/08/21 10:00:34;;;;;;;1999.90;999.90;;;22.50;99.90;;;;;;5049454;28;20411;-82
2021/08/21 10:03:03;;;;;;;1999.90;999.90;;;22.70;99.90;;;;;;5048292;28;20404;-82
2021/08/21 10:05:28;;;;;;;1999.90;999.90;;;22.70;99.90;;;;;;5066725;28;20486;-81
2021/08/21 10:08:09;;;;;;;1999.90;999.90;;;22.90;99.90;;;;;;5047636;28;20446;-81
2021/08/21 10:10:36;;;;;;;1999.90;999.90;;;22.90;99.90;;;;;;5062778;28;20266;-81
2021/08/21 10:13:18;;;;;;;1999.90;999.90;;;22.90;99.90;;;;;;5062824;28;20512;-82
2021/08/21 10:15:48;;;;;;;1999.90;999.90;;;22.90;99.90;;;;;;5047013;28;20406;-81
2021/08/21 10:18:18;;;;;;;1999.90;999.90;;;23.10;99.90;;;;;;5063504;28;20430;-81
2021/08/21 10:20:43;;;;;;;1999.90;999.90;;;23.10;99.90;;;;;;5064588;28;20510;-81
2021/08/21 10:23:15;;;;;;;1999.90;999.90;;;23.10;99.90;;;;;;5063937;28;20426;-81
2021/08/21 10:25:55;;;;;;;1999.90;999.90;;;23.30;99.90;;;;;;5064760;28;20157;-81
2021/08/21 10:28:22;;;;;;;1999.90;999.90;;;23.40;99.90;;;;;;5064595;28;20419;-81
2021/08/21 10:30:52;;;;;;;1999.90;999.90;;;23.50;99.90;;;;;;5062590;28;20447;-81
2021/08/21 10:33:18;;;;;;;1999.90;999.90;;;23.60;99.90;;;;;;5046351;28;20399;-81
2021/08/21 10:35:55;;;;;;;1999.90;999.90;;;23.80;99.90;;;;;;5045381;28;20410;-81
2021/08/21 10:38:33;;;;;;;1999.90;999.90;;;24.00;99.90;;;;;;5063319;28;20469;-81
2021/08/21 10:41:10;;;;;;;1999.90;999.90;;;24.20;99.90;;;;;;5063407;28;20403;-81
2021/08/21 10:43:52;;;;;;;1999.90;999.90;;;24.40;99.90;;;;;;5045169;28;20770;-79
2021/08/21 10:46:30;;;;;;;1999.90;999.90;;;24.40;99.90;;;;;;5063500;28;20398;-80
2021/08/21 10:48:56;;;;;;;1999.90;999.90;;;24.60;99.90;;;;;;5063561;28;20434;-81
2021/08/21 10:51:38;;;;;;;1999.90;999.90;;;24.80;99.90;;;;;;5063770;28;20449;-81
2021/08/21 10:54:26;;;;;;;1999.90;999.90;;;25.00;99.90;;;;;;5062628;28;20407;-79
2021/08/21 10:56:54;;;;;;;1999.90;999.90;;;25.00;97.50;;;;;;5031427;28;20438;-78
2021/08/21 10:59:52;;;;;;;1999.90;999.90;;;24.90;99.30;;;;;;5063209;28;20470;-79
2021/08/21 11:02:28;;;;;;;1999.90;999.90;;;25.10;97.30;;;;;;4991409;28;20434;-79
2021/08/21 11:04:55;;;;;;;1999.90;999.90;;;25.20;99.90;;;;;;5044852;28;20502;-79
2021/08/21 11:07:30;;;;;;;1999.90;999.90;;;25.50;99.90;;;;;;5062978;28;20473;-81
2021/08/21 11:10:26;;;;;;;1999.90;999.90;;;25.60;95.00;;;;;;5061287;28;20442;-81
2021/08/21 11:12:54;;;;;;;1999.90;999.90;;;25.70;95.70;;;;;;5062409;28;20366;-81
2021/08/21 11:15:22;;;;;;;1999.90;999.90;;;25.80;94.50;;;;;;5044383;28;20412;-81
2021/08/21 11:17:51;;;;;;;1999.90;999.90;;;25.90;93.40;;;;;;5062949;28;20454;-81
2021/08/21 11:20:30;;;;;;;1999.90;999.90;;;26.00;91.90;;;;;;5044405;28;20409;-81
2021/08/21 11:23:05;;;;;;;1999.90;999.90;;;26.00;75.60;;;;;;5043364;28;20968;-81
2021/08/21 11:25:32;;;;;;;1999.90;999.90;;;25.70;69.90;;;;;;5062247;28;20771;-81
2021/08/21 11:28:12;;;;;;;1999.90;999.90;;;25.20;86.60;;;;;;5045151;28;20455;-81
2021/08/21 11:30:39;;;;;;;1999.90;999.90;;;25.40;90.50;;;;;;5045224;28;20445;-81
2021/08/21 11:33:08;;;;;;;1999.90;999.90;;;25.40;79.60;;;;;;5063820;28;20428;-81
2021/08/21 11:35:37;;;;;;;1999.90;999.90;;;25.20;81.00;;;;;;5064022;28;20409;-81
2021/08/21 11:38:32;;;;;;;1999.90;999.90;;;25.60;88.80;;;;;;5042831;28;20517;-81
2021/08/21 11:41:01;;;;;;;1999.90;999.90;;;25.60;83.50;;;;;;5044625;28;20405;-81
2021/08/21 11:43:31;;;;;;;1999.90;999.90;;;25.60;76.90;;;;;;5063052;28;20415;-81
2021/08/21 11:45:59;;;;;;;1999.90;999.90;;;26.10;82.70;;;;;;5063303;28;20413;-81
2021/08/21 11:48:30;;;;;;;1999.90;999.90;;;26.50;70.30;;;;;;5063452;28;20446;-81
2021/08/21 11:50:57;;;;;;;1999.90;999.90;;;26.60;73.70;;;;;;5066574;28;20454;-81
2021/08/21 11:53:28;;;;;;;1999.90;999.90;;;26.70;50.90;;;;;;5067217;28;20403;-81
2021/08/21 11:55:56;;;;;;;1999.90;999.90;;;26.70;52.00;;;;;;5104988;22;20486;-87
2021/08/21 11:58:37;;;;;;;1999.90;999.90;;;26.60;56.10;;;;;;5057188;28;20454;-86
2021/08/21 12:01:14;;;;;;;1999.90;999.90;;;26.80;48.20;;;;;;5039101;28;20816;-86
2021/08/21 12:06:19;;;;;;;1999.90;999.90;;;26.90;42.00;;;;;;5057420;28;20413;-86
2021/08/21 12:08:45;;;;;;;1999.90;999.90;;;26.90;43.80;;;;;;5039932;28;20392;-85